sensor_id;sensor_type;location;lat;lon;timestamp;temperature;humidity
40638;DHT22;26336;44.696;10.622;2024-01-16T00:01:09;3.80;99.90
40638;DHT22;26336;44.696;10.622;2024-01-16T00:04:13;3.80;99.90
40638;DHT22;26336;44.696;10.622;2024-01-16T00:07:17;3.70;99.90
40638;DHT22;26336;44.696;10.622;2024-01-16T00:10:21;3.80;99.90
40638;DHT22;26336;44.696;10.622;2024-01-16T00:13:25;3.70;99.90
40638;DHT22;26336;44.696;10.622;2024-01-16T00:16:29;3.70;99.90
40638;DHT22;26336;44.696;10.622;2024-01-16T00:19:33;3.60;99.90
40638;DHT22;26336;44.696;10.622;2024-01-16T00:22:37;3.60;99.90
40638;DHT22;26336;44.696;10.622;2024-01-16T00:25:41;3.60;99.90
40638;DHT22;26336;44.696;10.622;2024-01-16T00:28:45;3.60;99.90
40638;DHT22;26336;44.696;10.622;2024-01-16T00:31:49;3.60;99.90
40638;DHT22;26336;44.696;10.622;2024-01-16T00:34:53;3.60;99.90
40638;DHT22;26336;44.696;10.622;2024-01-16T00:37:57;3.60;99.90
40638;DHT22;26336;44.696;10.622;2024-01-16T00:41:01;3.50;99.90
40638;DHT22;26336;44.696;10.622;2024-01-16T00:44:05;3.50;99.90
40638;DHT22;26336;44.696;10.622;2024-01-16T00:47:09;3.50;99.90
40638;DHT22;26336;44.696;10.622;2024-01-16T00:50:13;3.50;99.90
40638;DHT22;26336;44.696;10.622;2024-01-16T00:53:17;3.50;99.90
40638;DHT22;26336;44.696;10.622;2024-01-16T00:56:21;3.40;99.90
40638;DHT22;26336;44.696;10.622;2024-01-16T00:59:25;3.40;99.90
40638;DHT22;26336;44.696;10.622;2024-01-16T01:02:30;3.50;99.90
40638;DHT22;26336;44.696;10.622;2024-01-16T01:05:34;3.40;99.90
40638;DHT22;26336;44.696;10.622;2024-01-16T01:08:38;3.40;99.90
40638;DHT22;26336;44.696;10.622;2024-01-16T01:11:42;3.40;99.90
40638;DHT22;26336;44.696;10.622;2024-01-16T01:14:46;3.40;99.90
40638;DHT22;26336;44.696;10.622;2024-01-16T01:17:50;3.30;99.90
40638;DHT22;26336;44.696;10.622;2024-01-16T01:20:55;3.30;99.90
40638;DHT22;26336;44.696;10.622;2024-01-16T01:23:59;3.30;99.90
40638;DHT22;26336;44.696;10.622;2024-01-16T01:27:04;3.30;99.90
40638;DHT22;26336;44.696;10.622;2024-01-16T01:30:08;3.30;99.90
40638;DHT22;26336;44.696;10.622;2024-01-16T01:33:13;3.30;99.90
40638;DHT22;26336;44.696;10.622;2024-01-16T01:36:17;3.30;99.90
40638;DHT22;26336;44.696;10.622;2024-01-16T01:39:21;3.20;99.90
40638;DHT22;26336;44.696;10.622;2024-01-16T01:42:25;3.30;99.90
40638;DHT22;26336;44.696;10.622;2024-01-16T01:45:29;3.20;99.90
40638;DHT22;26336;44.696;10.622;2024-01-16T01:48:33;3.20;99.90
40638;DHT22;26336;44.696;10.622;2024-01-16T01:51:37;3.20;99.90
40638;DHT22;26336;44.696;10.622;2024-01-16T01:54:41;3.20;99.90
40638;DHT22;26336;44.696;10.622;2024-01-16T01:57:45;3.20;99.90
40638;DHT22;26336;44.696;10.622;2024-01-16T02:00:50;3.20;99.90
40638;DHT22;26336;44.696;10.622;2024-01-16T02:03:55;3.20;99.90
40638;DHT22;26336;44.696;10.622;2024-01-16T02:07:00;3.20;99.90
40638;DHT22;26336;44.696;10.622;2024-01-16T02:10:04;3.20;99.90
40638;DHT22;26336;44.696;10.622;2024-01-16T02:13:09;3.10;99.90
40638;DHT22;26336;44.696;10.622;2024-01-16T02:16:34;3.10;99.90
40638;DHT22;26336;44.696;10.622;2024-01-16T02:19:38;3.10;99.90
40638;DHT22;26336;44.696;10.622;2024-01-16T02:22:45;3.10;99.90
40638;DHT22;26336;44.696;10.622;2024-01-16T02:25:51;3.10;99.90
40638;DHT22;26336;44.696;10.622;2024-01-16T02:28:55;3.00;99.90
40638;DHT22;26336;44.696;10.622;2024-01-16T02:31:59;3.00;99.90
40638;DHT22;26336;44.696;10.622;2024-01-16T02:35:03;3.00;99.90
40638;DHT22;26336;44.696;10.622;2024-01-16T02:38:09;3.00;99.90
40638;DHT22;26336;44.696;10.622;2024-01-16T02:41:16;3.00;99.90
40638;DHT22;26336;44.696;10.622;2024-01-16T02:44:20;2.90;99.90
40638;DHT22;26336;44.696;10.622;2024-01-16T02:47:24;3.00;99.90
40638;DHT22;26336;44.696;10.622;2024-01-16T02:50:29;2.90;99.90
40638;DHT22;26336;44.696;10.622;2024-01-16T02:53:32;2.90;99.90
40638;DHT22;26336;44.696;10.622;2024-01-16T02:56:36;2.90;99.90
40638;DHT22;26336;44.696;10.622;2024-01-16T02:59:43;2.90;99.90
40638;DHT22;26336;44.696;10.622;2024-01-16T03:02:48;2.90;99.90
40638;DHT22;26336;44.696;10.622;2024-01-16T03:05:52;2.90;99.90
40638;DHT22;26336;44.696;10.622;2024-01-16T03:08:56;2.90;99.90
40638;DHT22;26336;44.696;10.622;2024-01-16T03:12:00;2.90;99.90
40638;DHT22;26336;44.696;10.622;2024-01-16T03:15:04;2.90;99.90
40638;DHT22;26336;44.696;10.622;2024-01-16T03:18:09;2.90;99.90
40638;DHT22;26336;44.696;10.622;2024-01-16T03:21:13;2.90;99.90
40638;DHT22;26336;44.696;10.622;2024-01-16T03:24:18;2.80;99.90
40638;DHT22;26336;44.696;10.622;2024-01-16T03:27:22;2.90;99.90
40638;DHT22;26336;44.696;10.622;2024-01-16T03:30:26;2.90;99.90
40638;DHT22;26336;44.696;10.622;2024-01-16T03:33:31;2.90;99.90
40638;DHT22;26336;44.696;10.622;2024-01-16T03:36:34;2.80;99.90
40638;DHT22;26336;44.696;10.622;2024-01-16T03:39:38;2.80;99.90
40638;DHT22;26336;44.696;10.622;2024-01-16T03:42:42;2.80;99.90
40638;DHT22;26336;44.696;10.622;2024-01-16T03:45:46;2.80;99.90
40638;DHT22;26336;44.696;10.622;2024-01-16T03:48:50;2.80;99.90
40638;DHT22;26336;44.696;10.622;2024-01-16T03:51:54;2.80;99.90
40638;DHT22;26336;44.696;10.622;2024-01-16T03:54:58;2.80;99.90
40638;DHT22;26336;44.696;10.622;2024-01-16T03:58:02;2.80;99.90
40638;DHT22;26336;44.696;10.622;2024-01-16T04:01:06;2.80;99.90
40638;DHT22;26336;44.696;10.622;2024-01-16T04:04:11;2.80;99.90
40638;DHT22;26336;44.696;10.622;2024-01-16T04:07:14;2.80;99.90
40638;DHT22;26336;44.696;10.622;2024-01-16T04:10:18;2.80;99.90
40638;DHT22;26336;44.696;10.622;2024-01-16T04:13:22;2.80;99.90
40638;DHT22;26336;44.696;10.622;2024-01-16T04:16:26;2.70;99.90
40638;DHT22;26336;44.696;10.622;2024-01-16T04:19:30;2.70;99.90
40638;DHT22;26336;44.696;10.622;2024-01-16T04:22:37;2.50;99.90
40638;DHT22;26336;44.696;10.622;2024-01-16T04:25:41;2.30;99.90
40638;DHT22;26336;44.696;10.622;2024-01-16T04:28:45;2.40;99.90
40638;DHT22;26336;44.696;10.622;2024-01-16T04:31:48;2.50;99.90
40638;DHT22;26336;44.696;10.622;2024-01-16T04:34:52;2.50;99.90
40638;DHT22;26336;44.696;10.622;2024-01-16T04:37:56;2.50;99.90
40638;DHT22;26336;44.696;10.622;2024-01-16T04:41:03;2.50;99.90
40638;DHT22;26336;44.696;10.622;2024-01-16T04:44:08;2.60;99.90
40638;DHT22;26336;44.696;10.622;2024-01-16T04:47:12;2.60;99.90
40638;DHT22;26336;44.696;10.622;2024-01-16T04:50:16;2.60;99.90
40638;DHT22;26336;44.696;10.622;2024-01-16T04:53:19;2.60;99.90
40638;DHT22;26336;44.696;10.622;2024-01-16T04:56:23;2.60;99.90
40638;DHT22;26336;44.696;10.622;2024-01-16T04:59:27;2.50;99.90
40638;DHT22;26336;44.696;10.622;2024-01-16T05:02:31;2.50;99.90
40638;DHT22;26336;44.696;10.622;2024-01-16T05:05:35;2.50;99.90
40638;DHT22;26336;44.696;10.622;2024-01-16T05:08:39;2.60;99.90
40638;DHT22;26336;44.696;10.622;2024-01-16T05:11:43;2.60;99.90
40638;DHT22;26336;44.696;10.622;2024-01-16T05:14:47;2.50;99.90
40638;DHT22;26336;44.696;10.622;2024-01-16T05:17:51;2.50;99.90
40638;DHT22;26336;44.696;10.622;2024-01-16T05:20:55;2.60;99.90
40638;DHT22;26336;44.696;10.622;2024-01-16T05:24:02;2.60;99.90
40638;DHT22;26336;44.696;10.622;2024-01-16T05:27:06;2.60;99.90
40638;DHT22;26336;44.696;10.622;2024-01-16T05:30:12;2.40;99.90
40638;DHT22;26336;44.696;10.622;2024-01-16T05:33:16;2.40;99.90
40638;DHT22;26336;44.696;10.622;2024-01-16T05:36:20;2.50;99.90
40638;DHT22;26336;44.696;10.622;2024-01-16T05:39:24;2.50;99.90
40638;DHT22;26336;44.696;10.622;2024-01-16T05:42:28;2.50;99.90
40638;DHT22;26336;44.696;10.622;2024-01-16T05:45:32;2.50;99.90
40638;DHT22;26336;44.696;10.622;2024-01-16T05:48:36;2.50;99.90
40638;DHT22;26336;44.696;10.622;2024-01-16T05:51:40;2.50;99.90
40638;DHT22;26336;44.696;10.622;2024-01-16T05:54:44;2.50;99.90
40638;DHT22;26336;44.696;10.622;2024-01-16T05:57:48;2.40;99.90
40638;DHT22;26336;44.696;10.622;2024-01-16T06:00:52;2.30;99.90
40638;DHT22;26336;44.696;10.622;2024-01-16T06:03:56;2.10;99.90
40638;DHT22;26336;44.696;10.622;2024-01-16T06:07:00;2.20;99.90
40638;DHT22;26336;44.696;10.622;2024-01-16T06:10:04;2.20;99.90
40638;DHT22;26336;44.696;10.622;2024-01-16T06:13:09;2.30;99.90
40638;DHT22;26336;44.696;10.622;2024-01-16T06:16:13;2.30;99.90
40638;DHT22;26336;44.696;10.622;2024-01-16T06:19:17;2.40;99.90
40638;DHT22;26336;44.696;10.622;2024-01-16T06:22:20;2.40;99.90
40638;DHT22;26336;44.696;10.622;2024-01-16T06:25:24;2.40;99.90
40638;DHT22;26336;44.696;10.622;2024-01-16T06:28:29;2.40;99.90
40638;DHT22;26336;44.696;10.622;2024-01-16T06:31:35;2.40;99.90
40638;DHT22;26336;44.696;10.622;2024-01-16T06:34:39;2.40;99.90
40638;DHT22;26336;44.696;10.622;2024-01-16T06:37:43;2.40;99.90
40638;DHT22;26336;44.696;10.622;2024-01-16T06:40:47;2.40;99.90
40638;DHT22;26336;44.696;10.622;2024-01-16T06:43:54;2.40;99.90
40638;DHT22;26336;44.696;10.622;2024-01-16T06:46:58;2.40;99.90
40638;DHT22;26336;44.696;10.622;2024-01-16T06:50:02;2.40;99.90
40638;DHT22;26336;44.696;10.622;2024-01-16T06:53:07;2.40;99.90
40638;DHT22;26336;44.696;10.622;2024-01-16T06:56:11;2.40;99.90
40638;DHT22;26336;44.696;10.622;2024-01-16T06:59:15;2.50;99.90
40638;DHT22;26336;44.696;10.622;2024-01-16T07:02:22;2.40;99.90
40638;DHT22;26336;44.696;10.622;2024-01-16T07:05:26;2.50;99.90
40638;DHT22;26336;44.696;10.622;2024-01-16T07:08:30;2.50;99.90
40638;DHT22;26336;44.696;10.622;2024-01-16T07:11:34;2.50;99.90
40638;DHT22;26336;44.696;10.622;2024-01-16T07:14:38;2.40;99.90
40638;DHT22;26336;44.696;10.622;2024-01-16T07:17:44;2.30;99.90
40638;DHT22;26336;44.696;10.622;2024-01-16T07:20:48;2.30;99.90
40638;DHT22;26336;44.696;10.622;2024-01-16T07:23:52;2.30;99.90
40638;DHT22;26336;44.696;10.622;2024-01-16T07:26:56;2.30;99.90
40638;DHT22;26336;44.696;10.622;2024-01-16T07:30:01;2.30;99.90
40638;DHT22;26336;44.696;10.622;2024-01-16T07:33:05;2.30;99.90
40638;DHT22;26336;44.696;10.622;2024-01-16T07:36:11;2.30;99.90
40638;DHT22;26336;44.696;10.622;2024-01-16T07:39:15;2.30;99.90
40638;DHT22;26336;44.696;10.622;2024-01-16T07:42:19;2.30;99.90
40638;DHT22;26336;44.696;10.622;2024-01-16T07:45:24;2.40;99.90
40638;DHT22;26336;44.696;10.622;2024-01-16T07:48:28;2.30;99.90
40638;DHT22;26336;44.696;10.622;2024-01-16T07:51:34;2.40;99.90
40638;DHT22;26336;44.696;10.622;2024-01-16T07:54:38;2.40;99.90
40638;DHT22;26336;44.696;10.622;2024-01-16T07:57:42;2.40;99.90
40638;DHT22;26336;44.696;10.622;2024-01-16T08:00:46;2.40;99.90
40638;DHT22;26336;44.696;10.622;2024-01-16T08:03:50;2.30;99.90
40638;DHT22;26336;44.696;10.622;2024-01-16T08:06:54;2.40;99.90
40638;DHT22;26336;44.696;10.622;2024-01-16T08:09:57;2.40;99.90
40638;DHT22;26336;44.696;10.622;2024-01-16T08:13:01;2.50;99.90
40638;DHT22;26336;44.696;10.622;2024-01-16T08:16:06;2.50;99.90
40638;DHT22;26336;44.696;10.622;2024-01-16T08:19:11;2.50;99.90
40638;DHT22;26336;44.696;10.622;2024-01-16T08:22:14;2.50;99.90
40638;DHT22;26336;44.696;10.622;2024-01-16T08:25:18;2.60;99.90
40638;DHT22;26336;44.696;10.622;2024-01-16T08:28:22;2.60;99.90
40638;DHT22;26336;44.696;10.622;2024-01-16T08:31:28;2.70;99.90
40638;DHT22;26336;44.696;10.622;2024-01-16T08:34:33;2.80;99.90
40638;DHT22;26336;44.696;10.622;2024-01-16T08:37:37;2.80;99.90
40638;DHT22;26336;44.696;10.622;2024-01-16T08:40:41;2.90;99.90
40638;DHT22;26336;44.696;10.622;2024-01-16T08:43:45;3.00;99.90
40638;DHT22;26336;44.696;10.622;2024-01-16T08:46:49;3.10;99.90
40638;DHT22;26336;44.696;10.622;2024-01-16T08:49:53;3.10;99.90
40638;DHT22;26336;44.696;10.622;2024-01-16T08:52:57;3.20;99.90
40638;DHT22;26336;44.696;10.622;2024-01-16T08:56:02;3.30;99.90
40638;DHT22;26336;44.696;10.622;2024-01-16T08:59:14;3.30;99.90
40638;DHT22;26336;44.696;10.622;2024-01-16T09:02:19;3.40;99.90
40638;DHT22;26336;44.696;10.622;2024-01-16T09:05:23;3.50;99.90
40638;DHT22;26336;44.696;10.622;2024-01-16T09:08:29;3.50;99.90
40638;DHT22;26336;44.696;10.622;2024-01-16T09:11:33;3.60;99.90
40638;DHT22;26336;44.696;10.622;2024-01-16T09:14:37;3.70;99.90
40638;DHT22;26336;44.696;10.622;2024-01-16T09:17:42;3.70;99.90
40638;DHT22;26336;44.696;10.622;2024-01-16T09:20:45;3.80;99.90
40638;DHT22;26336;44.696;10.622;2024-01-16T09:23:50;3.90;99.90
40638;DHT22;26336;44.696;10.622;2024-01-16T09:26:54;4.00;99.90
40638;DHT22;26336;44.696;10.622;2024-01-16T09:29:58;4.10;99.90
40638;DHT22;26336;44.696;10.622;2024-01-16T09:33:03;4.10;99.90
40638;DHT22;26336;44.696;10.622;2024-01-16T09:36:10;4.10;99.90
40638;DHT22;26336;44.696;10.622;2024-01-16T09:39:14;4.20;99.90
40638;DHT22;26336;44.696;10.622;2024-01-16T09:42:19;4.20;99.90
40638;DHT22;26336;44.696;10.622;2024-01-16T09:45:24;4.30;99.90
40638;DHT22;26336;44.696;10.622;2024-01-16T09:48:29;4.30;99.90
40638;DHT22;26336;44.696;10.622;2024-01-16T09:51:34;4.40;99.90
40638;DHT22;26336;44.696;10.622;2024-01-16T09:54:38;4.40;99.90
40638;DHT22;26336;44.696;10.622;2024-01-16T09:57:45;4.50;99.90
40638;DHT22;26336;44.696;10.622;2024-01-16T10:00:49;4.60;99.90
40638;DHT22;26336;44.696;10.622;2024-01-16T10:03:54;4.70;99.90
40638;DHT22;26336;44.696;10.622;2024-01-16T10:07:01;4.80;99.90
40638;DHT22;26336;44.696;10.622;2024-01-16T10:10:06;4.90;99.90
40638;DHT22;26336;44.696;10.622;2024-01-16T10:13:10;4.90;99.90
40638;DHT22;26336;44.696;10.622;2024-01-16T10:16:15;5.00;99.90
40638;DHT22;26336;44.696;10.622;2024-01-16T10:19:19;5.10;99.90
40638;DHT22;26336;44.696;10.622;2024-01-16T10:22:24;5.30;99.90
40638;DHT22;26336;44.696;10.622;2024-01-16T10:25:29;5.40;99.90
40638;DHT22;26336;44.696;10.622;2024-01-16T10:28:43;5.50;99.90
40638;DHT22;26336;44.696;10.622;2024-01-16T10:31:47;5.70;99.90
40638;DHT22;26336;44.696;10.622;2024-01-16T10:35:10;5.80;99.90
40638;DHT22;26336;44.696;10.622;2024-01-16T10:38:21;5.80;99.90
40638;DHT22;26336;44.696;10.622;2024-01-16T10:41:29;5.80;99.90
40638;DHT22;26336;44.696;10.622;2024-01-16T10:44:33;6.00;99.90
40638;DHT22;26336;44.696;10.622;2024-01-16T10:47:37;6.00;99.90
40638;DHT22;26336;44.696;10.622;2024-01-16T10:50:41;6.10;99.90
40638;DHT22;26336;44.696;10.622;2024-01-16T10:53:45;6.20;99.90
40638;DHT22;26336;44.696;10.622;2024-01-16T10:56:50;6.20;99.90
40638;DHT22;26336;44.696;10.622;2024-01-16T11:00:04;6.30;99.90
40638;DHT22;26336;44.696;10.622;2024-01-16T11:03:16;6.20;99.90
40638;DHT22;26336;44.696;10.622;2024-01-16T11:06:22;6.20;99.90
40638;DHT22;26336;44.696;10.622;2024-01-16T11:09:26;6.20;99.90
40638;DHT22;26336;44.696;10.622;2024-01-16T11:12:31;6.10;99.90
40638;DHT22;26336;44.696;10.622;2024-01-16T11:15:38;6.10;99.90
40638;DHT22;26336;44.696;10.622;2024-01-16T11:18:42;6.10;99.90
40638;DHT22;26336;44.696;10.622;2024-01-16T11:21:47;6.00;99.90
40638;DHT22;26336;44.696;10.622;2024-01-16T11:25:08;6.20;99.90
40638;DHT22;26336;44.696;10.622;2024-01-16T11:28:14;6.30;99.90
40638;DHT22;26336;44.696;10.622;2024-01-16T11:31:34;6.30;99.90
40638;DHT22;26336;44.696;10.622;2024-01-16T11:37:45;6.50;99.90
40638;DHT22;26336;44.696;10.622;2024-01-16T11:40:49;6.40;99.90
40638;DHT22;26336;44.696;10.622;2024-01-16T11:43:53;6.50;99.90
40638;DHT22;26336;44.696;10.622;2024-01-16T11:47:03;6.50;99.90
40638;DHT22;26336;44.696;10.622;2024-01-16T11:50:12;6.60;99.90
40638;DHT22;26336;44.696;10.622;2024-01-16T11:53:38;6.50;99.90
40638;DHT22;26336;44.696;10.622;2024-01-16T12:00:06;6.60;99.90
40638;DHT22;26336;44.696;10.622;2024-01-16T12:03:21;6.60;99.90
40638;DHT22;26336;44.696;10.622;2024-01-16T12:06:27;6.60;99.90
40638;DHT22;26336;44.696;10.622;2024-01-16T12:09:30;6.60;99.90
40638;DHT22;26336;44.696;10.622;2024-01-16T12:12:35;6.70;99.90
40638;DHT22;26336;44.696;10.622;2024-01-16T12:15:39;6.70;99.90
40638;DHT22;26336;44.696;10.622;2024-01-16T12:18:43;6.70;99.90
40638;DHT22;26336;44.696;10.622;2024-01-16T12:21:48;6.70;99.90
40638;DHT22;26336;44.696;10.622;2024-01-16T12:24:56;6.70;99.90
40638;DHT22;26336;44.696;10.622;2024-01-16T12:28:10;6.80;99.90
40638;DHT22;26336;44.696;10.622;2024-01-16T12:31:41;7.00;99.90
40638;DHT22;26336;44.696;10.622;2024-01-16T12:34:49;7.10;99.90
40638;DHT22;26336;44.696;10.622;2024-01-16T12:38:02;7.20;99.90
40638;DHT22;26336;44.696;10.622;2024-01-16T12:41:13;7.20;99.90
40638;DHT22;26336;44.696;10.622;2024-01-16T12:44:27;7.20;99.90
40638;DHT22;26336;44.696;10.622;2024-01-16T12:47:31;7.10;99.90
40638;DHT22;26336;44.696;10.622;2024-01-16T12:50:38;7.10;99.90
40638;DHT22;26336;44.696;10.622;2024-01-16T12:53:43;7.10;99.90
40638;DHT22;26336;44.696;10.622;2024-01-16T12:56:47;7.10;99.90
40638;DHT22;26336;44.696;10.622;2024-01-16T12:59:57;7.10;99.90
40638;DHT22;26336;44.696;10.622;2024-01-16T13:03:04;7.10;99.90
40638;DHT22;26336;44.696;10.622;2024-01-16T13:06:11;7.10;99.90
40638;DHT22;26336;44.696;10.622;2024-01-16T13:09:22;7.10;99.90
40638;DHT22;26336;44.696;10.622;2024-01-16T13:12:27;7.10;99.90
40638;DHT22;26336;44.696;10.622;2024-01-16T13:15:37;7.20;99.90
40638;DHT22;26336;44.696;10.622;2024-01-16T13:18:41;7.20;99.90
40638;DHT22;26336;44.696;10.622;2024-01-16T13:21:46;7.20;99.90
40638;DHT22;26336;44.696;10.622;2024-01-16T13:24:55;7.30;99.90
40638;DHT22;26336;44.696;10.622;2024-01-16T13:28:02;7.30;99.90
40638;DHT22;26336;44.696;10.622;2024-01-16T13:31:13;7.30;99.90
40638;DHT22;26336;44.696;10.622;2024-01-16T13:34:20;7.30;99.90
40638;DHT22;26336;44.696;10.622;2024-01-16T13:37:25;7.30;99.90
40638;DHT22;26336;44.696;10.622;2024-01-16T13:40:29;7.30;99.90
40638;DHT22;26336;44.696;10.622;2024-01-16T13:43:32;7.20;99.90
40638;DHT22;26336;44.696;10.622;2024-01-16T13:46:37;7.20;99.90
40638;DHT22;26336;44.696;10.622;2024-01-16T13:49:41;7.20;99.90
40638;DHT22;26336;44.696;10.622;2024-01-16T13:52:45;7.20;99.90
40638;DHT22;26336;44.696;10.622;2024-01-16T13:55:49;7.20;99.90
40638;DHT22;26336;44.696;10.622;2024-01-16T13:58:53;7.30;99.90
40638;DHT22;26336;44.696;10.622;2024-01-16T14:01:56;7.30;99.90
40638;DHT22;26336;44.696;10.622;2024-01-16T14:05:01;7.30;99.90
40638;DHT22;26336;44.696;10.622;2024-01-16T14:08:05;7.30;99.90
40638;DHT22;26336;44.696;10.622;2024-01-16T14:11:09;7.30;99.90
40638;DHT22;26336;44.696;10.622;2024-01-16T14:14:13;7.30;99.90
40638;DHT22;26336;44.696;10.622;2024-01-16T14:17:17;7.30;99.90
40638;DHT22;26336;44.696;10.622;2024-01-16T14:20:22;7.30;99.90
40638;DHT22;26336;44.696;10.622;2024-01-16T14:23:27;7.30;99.90
40638;DHT22;26336;44.696;10.622;2024-01-16T14:26:31;7.30;99.90
40638;DHT22;26336;44.696;10.622;2024-01-16T14:29:38;7.30;99.90
40638;DHT22;26336;44.696;10.622;2024-01-16T14:32:44;7.30;99.90
40638;DHT22;26336;44.696;10.622;2024-01-16T14:35:50;7.20;99.90
40638;DHT22;26336;44.696;10.622;2024-01-16T14:38:54;7.20;99.90
40638;DHT22;26336;44.696;10.622;2024-01-16T14:42:00;7.20;99.90
40638;DHT22;26336;44.696;10.622;2024-01-16T14:45:04;7.20;99.90
40638;DHT22;26336;44.696;10.622;2024-01-16T14:48:09;7.10;99.90
40638;DHT22;26336;44.696;10.622;2024-01-16T14:51:14;7.00;99.90
40638;DHT22;26336;44.696;10.622;2024-01-16T14:54:18;7.00;99.90
40638;DHT22;26336;44.696;10.622;2024-01-16T14:57:22;7.00;99.90
40638;DHT22;26336;44.696;10.622;2024-01-16T15:00:26;7.10;99.90
40638;DHT22;26336;44.696;10.622;2024-01-16T15:03:30;7.00;99.90
40638;DHT22;26336;44.696;10.622;2024-01-16T15:06:34;7.00;99.90
40638;DHT22;26336;44.696;10.622;2024-01-16T15:09:38;6.90;99.90
40638;DHT22;26336;44.696;10.622;2024-01-16T15:12:45;6.90;99.90
40638;DHT22;26336;44.696;10.622;2024-01-16T15:15:49;6.90;99.90
40638;DHT22;26336;44.696;10.622;2024-01-16T15:18:55;6.90;99.90
40638;DHT22;26336;44.696;10.622;2024-01-16T15:22:03;6.80;99.90
40638;DHT22;26336;44.696;10.622;2024-01-16T15:25:10;6.90;99.90
40638;DHT22;26336;44.696;10.622;2024-01-16T15:28:16;7.00;99.90
40638;DHT22;26336;44.696;10.622;2024-01-16T15:31:20;6.90;99.90
40638;DHT22;26336;44.696;10.622;2024-01-16T15:34:25;7.00;99.90
40638;DHT22;26336;44.696;10.622;2024-01-16T15:37:31;7.10;99.90
40638;DHT22;26336;44.696;10.622;2024-01-16T15:40:36;7.10;99.90
40638;DHT22;26336;44.696;10.622;2024-01-16T15:43:40;7.20;99.90
40638;DHT22;26336;44.696;10.622;2024-01-16T15:50:02;7.30;99.90
40638;DHT22;26336;44.696;10.622;2024-01-16T15:53:09;7.20;99.90
40638;DHT22;26336;44.696;10.622;2024-01-16T15:56:13;7.20;99.90
40638;DHT22;26336;44.696;10.622;2024-01-16T15:59:17;7.20;99.90
40638;DHT22;26336;44.696;10.622;2024-01-16T16:02:21;7.20;99.90
40638;DHT22;26336;44.696;10.622;2024-01-16T16:05:25;7.20;99.90
40638;DHT22;26336;44.696;10.622;2024-01-16T16:08:29;7.30;99.90
40638;DHT22;26336;44.696;10.622;2024-01-16T16:11:34;7.30;99.90
40638;DHT22;26336;44.696;10.622;2024-01-16T16:14:39;7.30;99.90
40638;DHT22;26336;44.696;10.622;2024-01-16T16:17:44;7.30;99.90
40638;DHT22;26336;44.696;10.622;2024-01-16T16:20:47;7.30;99.90
40638;DHT22;26336;44.696;10.622;2024-01-16T16:23:51;7.30;99.90
40638;DHT22;26336;44.696;10.622;2024-01-16T16:26:55;7.20;99.90
40638;DHT22;26336;44.696;10.622;2024-01-16T16:30:00;7.20;99.90
40638;DHT22;26336;44.696;10.622;2024-01-16T16:33:04;7.20;99.90
40638;DHT22;26336;44.696;10.622;2024-01-16T16:36:08;7.20;99.90
40638;DHT22;26336;44.696;10.622;2024-01-16T16:39:11;7.20;99.90
40638;DHT22;26336;44.696;10.622;2024-01-16T16:42:20;7.20;99.90
40638;DHT22;26336;44.696;10.622;2024-01-16T16:45:25;7.20;99.90
40638;DHT22;26336;44.696;10.622;2024-01-16T16:48:29;7.10;99.90
40638;DHT22;26336;44.696;10.622;2024-01-16T16:51:33;7.10;99.90
40638;DHT22;26336;44.696;10.622;2024-01-16T16:54:47;7.10;99.90
40638;DHT22;26336;44.696;10.622;2024-01-16T16:57:55;7.10;99.90
40638;DHT22;26336;44.696;10.622;2024-01-16T17:01:00;7.10;99.90
40638;DHT22;26336;44.696;10.622;2024-01-16T17:04:05;7.20;99.90
40638;DHT22;26336;44.696;10.622;2024-01-16T17:07:10;7.20;99.90
40638;DHT22;26336;44.696;10.622;2024-01-16T17:10:14;7.20;99.90
40638;DHT22;26336;44.696;10.622;2024-01-16T17:13:19;7.20;99.90
40638;DHT22;26336;44.696;10.622;2024-01-16T17:16:23;7.20;99.90
40638;DHT22;26336;44.696;10.622;2024-01-16T17:19:28;7.20;99.90
40638;DHT22;26336;44.696;10.622;2024-01-16T17:22:32;7.20;99.90
40638;DHT22;26336;44.696;10.622;2024-01-16T17:25:36;7.20;99.90
40638;DHT22;26336;44.696;10.622;2024-01-16T17:28:41;7.20;99.90
40638;DHT22;26336;44.696;10.622;2024-01-16T17:31:45;7.20;99.90
40638;DHT22;26336;44.696;10.622;2024-01-16T17:34:49;7.10;99.90
40638;DHT22;26336;44.696;10.622;2024-01-16T17:37:52;7.10;99.90
40638;DHT22;26336;44.696;10.622;2024-01-16T17:40:56;7.00;99.90
40638;DHT22;26336;44.696;10.622;2024-01-16T17:44:01;7.00;99.90
40638;DHT22;26336;44.696;10.622;2024-01-16T17:47:07;7.00;99.90
40638;DHT22;26336;44.696;10.622;2024-01-16T17:50:11;6.90;99.90
40638;DHT22;26336;44.696;10.622;2024-01-16T17:53:15;6.90;99.90
40638;DHT22;26336;44.696;10.622;2024-01-16T17:56:20;6.90;99.90
40638;DHT22;26336;44.696;10.622;2024-01-16T17:59:23;6.80;99.90
40638;DHT22;26336;44.696;10.622;2024-01-16T18:02:33;6.70;99.90
40638;DHT22;26336;44.696;10.622;2024-01-16T18:05:37;6.70;99.90
40638;DHT22;26336;44.696;10.622;2024-01-16T18:08:41;6.70;99.90
40638;DHT22;26336;44.696;10.622;2024-01-16T18:11:52;6.60;99.90
40638;DHT22;26336;44.696;10.622;2024-01-16T18:15:04;6.60;99.90
40638;DHT22;26336;44.696;10.622;2024-01-16T18:18:15;6.50;99.90
40638;DHT22;26336;44.696;10.622;2024-01-16T18:21:29;6.50;99.90
40638;DHT22;26336;44.696;10.622;2024-01-16T18:24:37;6.50;99.90
40638;DHT22;26336;44.696;10.622;2024-01-16T18:27:44;6.40;99.90
40638;DHT22;26336;44.696;10.622;2024-01-16T18:31:13;6.40;99.90
40638;DHT22;26336;44.696;10.622;2024-01-16T18:34:23;6.40;99.90
40638;DHT22;26336;44.696;10.622;2024-01-16T18:37:31;6.30;99.90
40638;DHT22;26336;44.696;10.622;2024-01-16T18:40:51;6.20;99.90
40638;DHT22;26336;44.696;10.622;2024-01-16T18:44:14;6.20;99.90
40638;DHT22;26336;44.696;10.622;2024-01-16T18:47:28;6.20;99.90
40638;DHT22;26336;44.696;10.622;2024-01-16T18:50:43;6.20;99.90
40638;DHT22;26336;44.696;10.622;2024-01-16T18:54:04;6.20;99.90
40638;DHT22;26336;44.696;10.622;2024-01-16T18:57:15;6.20;99.90
40638;DHT22;26336;44.696;10.622;2024-01-16T19:00:19;6.10;99.90
40638;DHT22;26336;44.696;10.622;2024-01-16T19:03:25;6.10;99.90
40638;DHT22;26336;44.696;10.622;2024-01-16T19:06:42;6.10;99.90
40638;DHT22;26336;44.696;10.622;2024-01-16T19:09:54;6.10;99.90
40638;DHT22;26336;44.696;10.622;2024-01-16T19:13:12;6.00;99.90
40638;DHT22;26336;44.696;10.622;2024-01-16T19:16:26;6.00;99.90
40638;DHT22;26336;44.696;10.622;2024-01-16T19:19:31;6.10;99.90
40638;DHT22;26336;44.696;10.622;2024-01-16T19:22:39;6.00;99.90
40638;DHT22;26336;44.696;10.622;2024-01-16T19:25:43;6.00;99.90
40638;DHT22;26336;44.696;10.622;2024-01-16T19:28:49;5.90;99.90
40638;DHT22;26336;44.696;10.622;2024-01-16T19:31:53;5.80;99.90
40638;DHT22;26336;44.696;10.622;2024-01-16T19:34:57;5.80;99.90
40638;DHT22;26336;44.696;10.622;2024-01-16T19:38:01;5.80;99.90
40638;DHT22;26336;44.696;10.622;2024-01-16T19:41:05;5.70;99.90